Overview Statistics Trail Chart Weather Telemetry Raw packets
 

This is the latest recevied weather packets stored in our database for station/object KC9DRE. If no packets are shown the sender has not sent any weather packets the latest 10 day(s).

<< 108 109 110 111 112 113 >>
Time Temp. Humidity Pressure Rain* Wind** Luminosity Snow
1777061391 22.78° C 69% 1008.5 hPa 0 mm - 212 W/m² -
1777061090 22.78° C 68% 1008.5 hPa 0 mm - 198 W/m² -
1777060787 22.78° C 68% 1008.6 hPa 0 mm - 174 W/m² -
1777060487 22.78° C 68% 1008.6 hPa 0 mm - 179 W/m² -
1777060183 22.78° C 68% 1008.7 hPa 0 mm - 174 W/m² -
1777059880 22.78° C 67% 1008.8 hPa 0 mm - 145 W/m² -
1777059576 22.78° C 66% 1008.6 hPa 0 mm - 160 W/m² -
1777059273 23.33° C 65% 1009 hPa 0 mm - 121 W/m² -
1777058973 23.89° C 63% 1009 hPa 0 mm - 110 W/m² -
1777058668 23.89° C 62% 1009 hPa 0 mm - 86 W/m² -
1777058365 23.89° C 62% 1008.7 hPa 0 mm - 141 W/m² -
1777058062 24.44° C 63% 1008.8 hPa 0 mm - 203 W/m² -
1777057762 24.44° C 60% 1008.8 hPa 0 mm - 240 W/m² -
1777057457 25.56° C 59% 1008.7 hPa 0 mm - 153 W/m² -
1777057153 26.67° C 58% 1008.7 hPa 0 mm - 111 W/m² -
1777056849 27.78° C 50% 1008.5 hPa 0 mm - 125 W/m² -
1777056543 28.33° C 50% 1008.6 hPa 0 mm - 257 W/m² -
1777056238 28.33° C 48% 1008.4 hPa 0 mm - 678 W/m² -
1777055935 27.78° C 48% 1008.6 hPa 0 mm - 561 W/m² -
1777055632 28.33° C 47% 1008.5 hPa 0 mm - 709 W/m² -
1777055327 28.33° C 48% 1008.7 hPa 0 mm - 880 W/m² -
1777055026 28.33° C 47% 1008.6 hPa 0 mm - 683 W/m² -
1777054722 27.22° C 49% 1008.7 hPa 0 mm - 898 W/m² -
1777054419 27.78° C 48% 1009 hPa 0 mm - 615 W/m² -
1777054118 27.78° C 49% 1009 hPa 0 mm - 534 W/m² -

* Rain latest hour (hover to see other rain measurements)
** Current wind speed in m/s (hover to see current wind gust speed)